Terminal Aerodrome Forecast
Issued by NWS

Home | Current Version | Previous Version | Text Only | Print | Product List | Glossary On
Versions: 1 2 3 4 5 6 7 8 9 10 11 12 13 14 15 16 17 18
000
FTUS41 KBTV 111139
TAFRUT
TAF
KRUT 111139Z 1112/1212 23005KT P6SM VCSH OVC035
      TEMPO 1112/1114 BKN025
     FM111400 30008KT P6SM BKN025
     FM111700 29006KT P6SM SCT045
     FM120500 14006KT P6SM VCSH OVC050
     FM120900 14011G17KT 2SM -SN BR SCT015 OVC030=

USA.gov is the U.S. government's official web portal to all federal, state and local government web resources and services.